sensor_id;sensor_type;location;lat;lon;timestamp;P1;durP1;ratioP1;P2;durP2;ratioP2
6207;SDS011;3137;51.550;7.060;2024-03-02T00:01:24;3.20;;;3.03;;
6207;SDS011;3137;51.550;7.060;2024-03-02T00:03:50;3.40;;;3.30;;
6207;SDS011;3137;51.550;7.060;2024-03-02T00:06:20;3.53;;;3.53;;
6207;SDS011;3137;51.550;7.060;2024-03-02T00:08:50;4.97;;;4.03;;
6207;SDS011;3137;51.550;7.060;2024-03-02T00:11:17;3.30;;;3.20;;
6207;SDS011;3137;51.550;7.060;2024-03-02T00:13:44;2.97;;;2.97;;
6207;SDS011;3137;51.550;7.060;2024-03-02T00:16:11;3.77;;;3.50;;
6207;SDS011;3137;51.550;7.060;2024-03-02T00:18:37;4.13;;;4.03;;
6207;SDS011;3137;51.550;7.060;2024-03-02T00:21:06;3.67;;;3.47;;
6207;SDS011;3137;51.550;7.060;2024-03-02T00:23:37;3.70;;;3.60;;
6207;SDS011;3137;51.550;7.060;2024-03-02T00:26:04;3.90;;;3.80;;
6207;SDS011;3137;51.550;7.060;2024-03-02T00:28:33;4.30;;;4.00;;
6207;SDS011;3137;51.550;7.060;2024-03-02T00:31:03;3.73;;;3.63;;
6207;SDS011;3137;51.550;7.060;2024-03-02T00:33:31;8.97;;;3.90;;
6207;SDS011;3137;51.550;7.060;2024-03-02T00:35:59;3.40;;;3.30;;
6207;SDS011;3137;51.550;7.060;2024-03-02T00:38:27;2.90;;;2.87;;
6207;SDS011;3137;51.550;7.060;2024-03-02T00:40:54;3.10;;;3.10;;
6207;SDS011;3137;51.550;7.060;2024-03-02T00:46:23;3.87;;;3.60;;
6207;SDS011;3137;51.550;7.060;2024-03-02T00:51:24;4.10;;;3.90;;
6207;SDS011;3137;51.550;7.060;2024-03-02T00:53:53;3.13;;;3.13;;
6207;SDS011;3137;51.550;7.060;2024-03-02T00:56:24;4.20;;;3.90;;
6207;SDS011;3137;51.550;7.060;2024-03-02T00:58:51;3.87;;;3.77;;
6207;SDS011;3137;51.550;7.060;2024-03-02T01:01:18;3.50;;;3.30;;
6207;SDS011;3137;51.550;7.060;2024-03-02T01:03:46;3.93;;;3.83;;
6207;SDS011;3137;51.550;7.060;2024-03-02T01:06:12;3.23;;;3.23;;
6207;SDS011;3137;51.550;7.060;2024-03-02T01:08:39;3.70;;;3.60;;
6207;SDS011;3137;51.550;7.060;2024-03-02T01:11:05;3.60;;;3.60;;
6207;SDS011;3137;51.550;7.060;2024-03-02T01:13:32;2.90;;;2.90;;
6207;SDS011;3137;51.550;7.060;2024-03-02T01:15:59;3.27;;;3.07;;
6207;SDS011;3137;51.550;7.060;2024-03-02T01:18:26;2.83;;;2.80;;
6207;SDS011;3137;51.550;7.060;2024-03-02T01:20:52;2.40;;;2.30;;
6207;SDS011;3137;51.550;7.060;2024-03-02T01:23:21;2.63;;;2.50;;
6207;SDS011;3137;51.550;7.060;2024-03-02T01:25:49;2.90;;;2.80;;
6207;SDS011;3137;51.550;7.060;2024-03-02T01:28:17;2.67;;;2.47;;
6207;SDS011;3137;51.550;7.060;2024-03-02T01:30:44;2.57;;;2.57;;
6207;SDS011;3137;51.550;7.060;2024-03-02T01:33:11;2.30;;;2.30;;
6207;SDS011;3137;51.550;7.060;2024-03-02T01:35:37;2.37;;;2.27;;
6207;SDS011;3137;51.550;7.060;2024-03-02T01:38:04;2.40;;;2.40;;
6207;SDS011;3137;51.550;7.060;2024-03-02T01:40:34;2.20;;;2.20;;
6207;SDS011;3137;51.550;7.060;2024-03-02T01:43:00;2.30;;;2.30;;
6207;SDS011;3137;51.550;7.060;2024-03-02T01:45:28;3.17;;;2.47;;
6207;SDS011;3137;51.550;7.060;2024-03-02T01:47:55;2.50;;;2.37;;
6207;SDS011;3137;51.550;7.060;2024-03-02T01:50:29;2.20;;;2.20;;
6207;SDS011;3137;51.550;7.060;2024-03-02T01:52:57;2.53;;;2.53;;
6207;SDS011;3137;51.550;7.060;2024-03-02T01:55:24;2.20;;;2.20;;
6207;SDS011;3137;51.550;7.060;2024-03-02T01:57:51;2.53;;;2.53;;
6207;SDS011;3137;51.550;7.060;2024-03-02T02:00:19;2.93;;;2.80;;
6207;SDS011;3137;51.550;7.060;2024-03-02T02:02:46;2.63;;;2.60;;
6207;SDS011;3137;51.550;7.060;2024-03-02T02:05:17;1.90;;;1.90;;
6207;SDS011;3137;51.550;7.060;2024-03-02T02:07:43;4.00;;;2.17;;
6207;SDS011;3137;51.550;7.060;2024-03-02T02:10:10;2.00;;;2.00;;
6207;SDS011;3137;51.550;7.060;2024-03-02T02:12:37;2.00;;;2.00;;
6207;SDS011;3137;51.550;7.060;2024-03-02T02:15:21;2.13;;;2.13;;
6207;SDS011;3137;51.550;7.060;2024-03-02T02:17:48;1.87;;;1.87;;
6207;SDS011;3137;51.550;7.060;2024-03-02T02:20:15;2.20;;;2.20;;
6207;SDS011;3137;51.550;7.060;2024-03-02T02:22:52;2.20;;;2.00;;
6207;SDS011;3137;51.550;7.060;2024-03-02T02:25:21;3.33;;;2.67;;
6207;SDS011;3137;51.550;7.060;2024-03-02T02:27:48;1.83;;;1.83;;
6207;SDS011;3137;51.550;7.060;2024-03-02T02:30:18;2.17;;;2.07;;
6207;SDS011;3137;51.550;7.060;2024-03-02T02:32:46;2.40;;;2.40;;
6207;SDS011;3137;51.550;7.060;2024-03-02T02:35:12;2.00;;;2.00;;
6207;SDS011;3137;51.550;7.060;2024-03-02T02:37:39;1.97;;;1.97;;
6207;SDS011;3137;51.550;7.060;2024-03-02T02:40:05;2.27;;;2.27;;
6207;SDS011;3137;51.550;7.060;2024-03-02T02:42:32;2.37;;;2.37;;
6207;SDS011;3137;51.550;7.060;2024-03-02T02:44:58;2.30;;;2.30;;
6207;SDS011;3137;51.550;7.060;2024-03-02T02:47:25;2.37;;;2.27;;
6207;SDS011;3137;51.550;7.060;2024-03-02T02:49:52;2.37;;;2.37;;
6207;SDS011;3137;51.550;7.060;2024-03-02T02:52:19;2.30;;;2.30;;
6207;SDS011;3137;51.550;7.060;2024-03-02T02:54:46;5.60;;;2.43;;
6207;SDS011;3137;51.550;7.060;2024-03-02T02:57:13;4.00;;;2.00;;
6207;SDS011;3137;51.550;7.060;2024-03-02T02:59:39;2.00;;;2.00;;
6207;SDS011;3137;51.550;7.060;2024-03-02T03:02:05;1.90;;;1.90;;
6207;SDS011;3137;51.550;7.060;2024-03-02T03:04:32;1.90;;;1.80;;
6207;SDS011;3137;51.550;7.060;2024-03-02T03:06:59;2.03;;;1.93;;
6207;SDS011;3137;51.550;7.060;2024-03-02T03:09:25;2.37;;;2.33;;
6207;SDS011;3137;51.550;7.060;2024-03-02T03:11:52;2.00;;;2.00;;
6207;SDS011;3137;51.550;7.060;2024-03-02T03:14:18;2.67;;;2.60;;
6207;SDS011;3137;51.550;7.060;2024-03-02T03:16:45;2.10;;;2.10;;
6207;SDS011;3137;51.550;7.060;2024-03-02T03:19:12;2.43;;;2.37;;
6207;SDS011;3137;51.550;7.060;2024-03-02T03:21:38;2.07;;;2.07;;
6207;SDS011;3137;51.550;7.060;2024-03-02T03:24:05;2.67;;;2.50;;
6207;SDS011;3137;51.550;7.060;2024-03-02T03:26:31;2.20;;;2.10;;
6207;SDS011;3137;51.550;7.060;2024-03-02T03:28:58;2.70;;;2.70;;
6207;SDS011;3137;51.550;7.060;2024-03-02T03:31:24;4.40;;;2.80;;
6207;SDS011;3137;51.550;7.060;2024-03-02T03:33:51;3.00;;;2.90;;
6207;SDS011;3137;51.550;7.060;2024-03-02T03:36:17;1.80;;;1.80;;
6207;SDS011;3137;51.550;7.060;2024-03-02T03:38:44;2.33;;;2.23;;
6207;SDS011;3137;51.550;7.060;2024-03-02T03:41:10;2.33;;;2.33;;
6207;SDS011;3137;51.550;7.060;2024-03-02T03:43:37;2.30;;;2.30;;
6207;SDS011;3137;51.550;7.060;2024-03-02T03:46:03;2.87;;;2.77;;
6207;SDS011;3137;51.550;7.060;2024-03-02T03:48:30;2.20;;;2.10;;
6207;SDS011;3137;51.550;7.060;2024-03-02T03:50:57;2.40;;;2.07;;
6207;SDS011;3137;51.550;7.060;2024-03-02T03:53:23;2.20;;;2.20;;
6207;SDS011;3137;51.550;7.060;2024-03-02T03:55:50;2.37;;;2.37;;
6207;SDS011;3137;51.550;7.060;2024-03-02T03:58:16;2.33;;;2.33;;
6207;SDS011;3137;51.550;7.060;2024-03-02T04:00:48;3.90;;;2.57;;
6207;SDS011;3137;51.550;7.060;2024-03-02T04:03:14;2.43;;;2.27;;
6207;SDS011;3137;51.550;7.060;2024-03-02T04:05:41;2.60;;;2.43;;
6207;SDS011;3137;51.550;7.060;2024-03-02T04:08:07;2.50;;;2.50;;
6207;SDS011;3137;51.550;7.060;2024-03-02T04:10:34;4.43;;;2.40;;
6207;SDS011;3137;51.550;7.060;2024-03-02T04:13:00;6.33;;;2.00;;
6207;SDS011;3137;51.550;7.060;2024-03-02T04:15:26;3.20;;;2.60;;
6207;SDS011;3137;51.550;7.060;2024-03-02T04:17:53;2.87;;;2.87;;
6207;SDS011;3137;51.550;7.060;2024-03-02T04:20:20;2.20;;;2.20;;
6207;SDS011;3137;51.550;7.060;2024-03-02T04:22:46;1.90;;;1.90;;
6207;SDS011;3137;51.550;7.060;2024-03-02T04:25:13;2.03;;;2.03;;
6207;SDS011;3137;51.550;7.060;2024-03-02T04:27:39;2.00;;;2.00;;
6207;SDS011;3137;51.550;7.060;2024-03-02T04:30:07;2.20;;;2.17;;
6207;SDS011;3137;51.550;7.060;2024-03-02T04:32:34;2.77;;;2.77;;
6207;SDS011;3137;51.550;7.060;2024-03-02T04:35:02;4.23;;;2.50;;
6207;SDS011;3137;51.550;7.060;2024-03-02T04:37:28;3.33;;;2.50;;
6207;SDS011;3137;51.550;7.060;2024-03-02T04:39:55;2.50;;;2.30;;
6207;SDS011;3137;51.550;7.060;2024-03-02T04:42:21;2.40;;;2.30;;
6207;SDS011;3137;51.550;7.060;2024-03-02T04:44:48;2.77;;;2.67;;
6207;SDS011;3137;51.550;7.060;2024-03-02T04:47:15;2.80;;;2.77;;
6207;SDS011;3137;51.550;7.060;2024-03-02T04:49:41;2.83;;;2.73;;
6207;SDS011;3137;51.550;7.060;2024-03-02T04:52:08;3.00;;;3.00;;
6207;SDS011;3137;51.550;7.060;2024-03-02T04:54:34;2.53;;;2.33;;
6207;SDS011;3137;51.550;7.060;2024-03-02T04:57:21;2.50;;;2.33;;
6207;SDS011;3137;51.550;7.060;2024-03-02T04:59:47;3.90;;;2.33;;
6207;SDS011;3137;51.550;7.060;2024-03-02T05:02:14;2.33;;;2.23;;
6207;SDS011;3137;51.550;7.060;2024-03-02T05:04:41;2.77;;;2.57;;
6207;SDS011;3137;51.550;7.060;2024-03-02T05:07:08;2.60;;;2.60;;
6207;SDS011;3137;51.550;7.060;2024-03-02T05:09:34;2.43;;;2.43;;
6207;SDS011;3137;51.550;7.060;2024-03-02T05:12:01;3.20;;;2.70;;
6207;SDS011;3137;51.550;7.060;2024-03-02T05:14:55;2.90;;;2.90;;
6207;SDS011;3137;51.550;7.060;2024-03-02T05:17:22;2.50;;;2.40;;
6207;SDS011;3137;51.550;7.060;2024-03-02T05:19:49;2.23;;;2.23;;
6207;SDS011;3137;51.550;7.060;2024-03-02T05:22:15;2.03;;;1.93;;
6207;SDS011;3137;51.550;7.060;2024-03-02T05:24:42;2.37;;;2.10;;
6207;SDS011;3137;51.550;7.060;2024-03-02T05:27:09;6.90;;;2.47;;
6207;SDS011;3137;51.550;7.060;2024-03-02T05:29:35;3.33;;;2.73;;
6207;SDS011;3137;51.550;7.060;2024-03-02T05:32:02;2.37;;;2.37;;
6207;SDS011;3137;51.550;7.060;2024-03-02T05:34:28;2.43;;;2.33;;
6207;SDS011;3137;51.550;7.060;2024-03-02T05:36:56;2.40;;;2.40;;
6207;SDS011;3137;51.550;7.060;2024-03-02T05:39:24;2.63;;;2.53;;
6207;SDS011;3137;51.550;7.060;2024-03-02T05:41:50;3.20;;;3.10;;
6207;SDS011;3137;51.550;7.060;2024-03-02T05:44:16;3.63;;;3.33;;
6207;SDS011;3137;51.550;7.060;2024-03-02T05:46:44;2.70;;;2.70;;
6207;SDS011;3137;51.550;7.060;2024-03-02T05:49:11;3.07;;;3.07;;
6207;SDS011;3137;51.550;7.060;2024-03-02T05:51:37;3.10;;;3.10;;
6207;SDS011;3137;51.550;7.060;2024-03-02T05:54:04;3.13;;;2.90;;
6207;SDS011;3137;51.550;7.060;2024-03-02T05:56:30;2.47;;;2.47;;
6207;SDS011;3137;51.550;7.060;2024-03-02T05:58:57;2.80;;;2.73;;
6207;SDS011;3137;51.550;7.060;2024-03-02T06:01:39;2.80;;;2.70;;
6207;SDS011;3137;51.550;7.060;2024-03-02T06:04:06;2.93;;;2.60;;
6207;SDS011;3137;51.550;7.060;2024-03-02T06:06:33;3.67;;;3.57;;
6207;SDS011;3137;51.550;7.060;2024-03-02T06:09:03;2.90;;;2.90;;
6207;SDS011;3137;51.550;7.060;2024-03-02T06:11:39;2.97;;;2.77;;
6207;SDS011;3137;51.550;7.060;2024-03-02T06:14:07;3.20;;;3.10;;
6207;SDS011;3137;51.550;7.060;2024-03-02T06:16:34;9.10;;;3.30;;
6207;SDS011;3137;51.550;7.060;2024-03-02T06:19:01;3.27;;;3.17;;
6207;SDS011;3137;51.550;7.060;2024-03-02T06:21:28;11.80;;;2.90;;
6207;SDS011;3137;51.550;7.060;2024-03-02T06:23:54;3.13;;;2.93;;
6207;SDS011;3137;51.550;7.060;2024-03-02T06:26:21;4.70;;;3.50;;
6207;SDS011;3137;51.550;7.060;2024-03-02T06:28:51;3.57;;;3.33;;
6207;SDS011;3137;51.550;7.060;2024-03-02T06:31:18;4.53;;;3.13;;
6207;SDS011;3137;51.550;7.060;2024-03-02T06:33:44;4.73;;;4.33;;
6207;SDS011;3137;51.550;7.060;2024-03-02T06:36:10;3.70;;;3.70;;
6207;SDS011;3137;51.550;7.060;2024-03-02T06:38:38;4.40;;;4.30;;
6207;SDS011;3137;51.550;7.060;2024-03-02T06:41:08;3.80;;;3.47;;
6207;SDS011;3137;51.550;7.060;2024-03-02T06:43:35;3.70;;;3.70;;
6207;SDS011;3137;51.550;7.060;2024-03-02T06:46:01;3.70;;;3.70;;
6207;SDS011;3137;51.550;7.060;2024-03-02T06:48:28;3.90;;;3.80;;
6207;SDS011;3137;51.550;7.060;2024-03-02T06:50:56;3.03;;;3.03;;
6207;SDS011;3137;51.550;7.060;2024-03-02T06:53:23;3.40;;;3.30;;
6207;SDS011;3137;51.550;7.060;2024-03-02T06:55:49;6.33;;;3.80;;
6207;SDS011;3137;51.550;7.060;2024-03-02T06:58:16;4.00;;;3.90;;
6207;SDS011;3137;51.550;7.060;2024-03-02T07:00:42;4.63;;;4.53;;
6207;SDS011;3137;51.550;7.060;2024-03-02T07:03:10;3.60;;;3.50;;
6207;SDS011;3137;51.550;7.060;2024-03-02T07:05:36;4.13;;;4.03;;
6207;SDS011;3137;51.550;7.060;2024-03-02T07:08:03;3.70;;;3.70;;
6207;SDS011;3137;51.550;7.060;2024-03-02T07:10:31;5.47;;;4.00;;
6207;SDS011;3137;51.550;7.060;2024-03-02T07:12:57;4.67;;;4.27;;
6207;SDS011;3137;51.550;7.060;2024-03-02T07:15:24;4.77;;;4.57;;
6207;SDS011;3137;51.550;7.060;2024-03-02T07:17:53;5.10;;;4.80;;
6207;SDS011;3137;51.550;7.060;2024-03-02T07:20:20;5.20;;;4.90;;
6207;SDS011;3137;51.550;7.060;2024-03-02T07:22:46;6.37;;;5.80;;
6207;SDS011;3137;51.550;7.060;2024-03-02T07:25:13;6.13;;;5.83;;
6207;SDS011;3137;51.550;7.060;2024-03-02T07:27:42;9.23;;;6.07;;
6207;SDS011;3137;51.550;7.060;2024-03-02T07:30:13;6.47;;;5.87;;
6207;SDS011;3137;51.550;7.060;2024-03-02T07:32:40;4.80;;;4.43;;
6207;SDS011;3137;51.550;7.060;2024-03-02T07:35:08;5.30;;;4.97;;
6207;SDS011;3137;51.550;7.060;2024-03-02T07:37:34;5.17;;;4.87;;
6207;SDS011;3137;51.550;7.060;2024-03-02T07:40:00;5.43;;;5.23;;
6207;SDS011;3137;51.550;7.060;2024-03-02T07:42:27;5.07;;;4.97;;
6207;SDS011;3137;51.550;7.060;2024-03-02T07:44:54;5.07;;;4.83;;
6207;SDS011;3137;51.550;7.060;2024-03-02T07:47:20;4.97;;;4.77;;
6207;SDS011;3137;51.550;7.060;2024-03-02T07:49:47;6.23;;;4.83;;
6207;SDS011;3137;51.550;7.060;2024-03-02T07:52:14;4.80;;;4.57;;
6207;SDS011;3137;51.550;7.060;2024-03-02T07:54:40;9.73;;;4.60;;
6207;SDS011;3137;51.550;7.060;2024-03-02T07:57:07;4.97;;;4.70;;
6207;SDS011;3137;51.550;7.060;2024-03-02T07:59:34;4.60;;;4.40;;
6207;SDS011;3137;51.550;7.060;2024-03-02T08:02:01;4.07;;;3.73;;
6207;SDS011;3137;51.550;7.060;2024-03-02T08:04:27;4.70;;;4.50;;
6207;SDS011;3137;51.550;7.060;2024-03-02T08:06:54;5.30;;;5.13;;
6207;SDS011;3137;51.550;7.060;2024-03-02T08:09:21;4.47;;;4.37;;
6207;SDS011;3137;51.550;7.060;2024-03-02T08:11:48;4.43;;;3.97;;
6207;SDS011;3137;51.550;7.060;2024-03-02T08:14:14;4.53;;;4.17;;
6207;SDS011;3137;51.550;7.060;2024-03-02T08:16:41;7.10;;;3.63;;
6207;SDS011;3137;51.550;7.060;2024-03-02T08:19:07;3.97;;;3.73;;
6207;SDS011;3137;51.550;7.060;2024-03-02T08:21:35;4.13;;;3.93;;
6207;SDS011;3137;51.550;7.060;2024-03-02T08:24:02;4.10;;;3.80;;
6207;SDS011;3137;51.550;7.060;2024-03-02T08:26:29;3.50;;;3.40;;
6207;SDS011;3137;51.550;7.060;2024-03-02T08:28:58;6.07;;;4.13;;
6207;SDS011;3137;51.550;7.060;2024-03-02T08:31:25;3.93;;;3.83;;
6207;SDS011;3137;51.550;7.060;2024-03-02T08:33:51;3.43;;;3.33;;
6207;SDS011;3137;51.550;7.060;2024-03-02T08:36:18;3.57;;;3.30;;
6207;SDS011;3137;51.550;7.060;2024-03-02T08:38:45;3.83;;;3.77;;
6207;SDS011;3137;51.550;7.060;2024-03-02T08:41:12;3.33;;;3.13;;
6207;SDS011;3137;51.550;7.060;2024-03-02T08:43:40;3.67;;;3.53;;
6207;SDS011;3137;51.550;7.060;2024-03-02T08:46:07;3.00;;;3.00;;
6207;SDS011;3137;51.550;7.060;2024-03-02T08:48:34;3.47;;;2.93;;
6207;SDS011;3137;51.550;7.060;2024-03-02T08:51:00;3.10;;;3.10;;
6207;SDS011;3137;51.550;7.060;2024-03-02T08:53:27;3.97;;;3.97;;
6207;SDS011;3137;51.550;7.060;2024-03-02T08:55:53;6.00;;;3.27;;
6207;SDS011;3137;51.550;7.060;2024-03-02T08:58:24;4.10;;;3.07;;
6207;SDS011;3137;51.550;7.060;2024-03-02T09:00:50;4.00;;;2.67;;
6207;SDS011;3137;51.550;7.060;2024-03-02T09:03:17;2.63;;;2.63;;
6207;SDS011;3137;51.550;7.060;2024-03-02T09:05:44;2.57;;;2.47;;
6207;SDS011;3137;51.550;7.060;2024-03-02T09:08:11;2.90;;;2.80;;
6207;SDS011;3137;51.550;7.060;2024-03-02T09:10:37;2.23;;;2.13;;
6207;SDS011;3137;51.550;7.060;2024-03-02T09:13:06;5.43;;;2.60;;
6207;SDS011;3137;51.550;7.060;2024-03-02T09:15:32;3.60;;;2.27;;
6207;SDS011;3137;51.550;7.060;2024-03-02T09:18:02;2.70;;;2.57;;
6207;SDS011;3137;51.550;7.060;2024-03-02T09:20:30;2.37;;;2.37;;
6207;SDS011;3137;51.550;7.060;2024-03-02T09:22:56;4.23;;;2.87;;
6207;SDS011;3137;51.550;7.060;2024-03-02T09:25:22;3.00;;;2.73;;
6207;SDS011;3137;51.550;7.060;2024-03-02T09:27:49;2.70;;;2.53;;
6207;SDS011;3137;51.550;7.060;2024-03-02T09:30:15;2.10;;;2.10;;
6207;SDS011;3137;51.550;7.060;2024-03-02T09:32:42;2.43;;;2.33;;
6207;SDS011;3137;51.550;7.060;2024-03-02T09:35:10;2.03;;;2.00;;
6207;SDS011;3137;51.550;7.060;2024-03-02T09:37:38;2.60;;;2.60;;
6207;SDS011;3137;51.550;7.060;2024-03-02T09:40:04;2.80;;;2.63;;
6207;SDS011;3137;51.550;7.060;2024-03-02T09:42:32;2.70;;;2.63;;
6207;SDS011;3137;51.550;7.060;2024-03-02T09:44:58;2.93;;;2.83;;
6207;SDS011;3137;51.550;7.060;2024-03-02T09:47:25;5.57;;;2.43;;
6207;SDS011;3137;51.550;7.060;2024-03-02T09:49:52;2.30;;;2.10;;
6207;SDS011;3137;51.550;7.060;2024-03-02T09:52:18;6.70;;;1.97;;
6207;SDS011;3137;51.550;7.060;2024-03-02T09:54:46;2.00;;;2.00;;
6207;SDS011;3137;51.550;7.060;2024-03-02T09:57:14;1.80;;;1.80;;
6207;SDS011;3137;51.550;7.060;2024-03-02T09:59:41;1.67;;;1.60;;
6207;SDS011;3137;51.550;7.060;2024-03-02T10:02:07;1.90;;;1.80;;
6207;SDS011;3137;51.550;7.060;2024-03-02T10:04:34;1.93;;;1.83;;
6207;SDS011;3137;51.550;7.060;2024-03-02T10:07:15;4.57;;;2.73;;
6207;SDS011;3137;51.550;7.060;2024-03-02T10:09:43;1.90;;;1.90;;
6207;SDS011;3137;51.550;7.060;2024-03-02T10:12:14;2.00;;;2.00;;
6207;SDS011;3137;51.550;7.060;2024-03-02T10:14:42;2.60;;;1.63;;
6207;SDS011;3137;51.550;7.060;2024-03-02T10:17:10;2.10;;;2.10;;
6207;SDS011;3137;51.550;7.060;2024-03-02T10:19:38;1.83;;;1.83;;
6207;SDS011;3137;51.550;7.060;2024-03-02T10:22:06;2.00;;;1.87;;
6207;SDS011;3137;51.550;7.060;2024-03-02T10:24:35;3.00;;;2.20;;
6207;SDS011;3137;51.550;7.060;2024-03-02T10:27:07;3.30;;;1.90;;
6207;SDS011;3137;51.550;7.060;2024-03-02T10:29:39;2.53;;;2.40;;
6207;SDS011;3137;51.550;7.060;2024-03-02T10:32:10;2.30;;;2.30;;
6207;SDS011;3137;51.550;7.060;2024-03-02T10:34:39;1.90;;;1.80;;
6207;SDS011;3137;51.550;7.060;2024-03-02T10:37:06;1.70;;;1.70;;
6207;SDS011;3137;51.550;7.060;2024-03-02T10:39:34;2.27;;;2.27;;
6207;SDS011;3137;51.550;7.060;2024-03-02T10:42:02;1.77;;;1.77;;
6207;SDS011;3137;51.550;7.060;2024-03-02T10:44:30;1.83;;;1.80;;
6207;SDS011;3137;51.550;7.060;2024-03-02T10:46:57;1.87;;;1.77;;
6207;SDS011;3137;51.550;7.060;2024-03-02T10:49:30;1.50;;;1.50;;
6207;SDS011;3137;51.550;7.060;2024-03-02T10:52:00;1.07;;;1.07;;
6207;SDS011;3137;51.550;7.060;2024-03-02T10:54:27;1.43;;;1.43;;
6207;SDS011;3137;51.550;7.060;2024-03-02T10:57:02;2.33;;;2.17;;
6207;SDS011;3137;51.550;7.060;2024-03-02T10:59:34;2.77;;;1.63;;
6207;SDS011;3137;51.550;7.060;2024-03-02T11:02:03;1.50;;;1.50;;
6207;SDS011;3137;51.550;7.060;2024-03-02T11:04:32;3.70;;;1.80;;
6207;SDS011;3137;51.550;7.060;2024-03-02T11:07:08;1.90;;;1.80;;
6207;SDS011;3137;51.550;7.060;2024-03-02T11:09:57;1.50;;;1.50;;
6207;SDS011;3137;51.550;7.060;2024-03-02T11:12:29;1.40;;;1.40;;
6207;SDS011;3137;51.550;7.060;2024-03-02T11:14:58;5.63;;;1.50;;
6207;SDS011;3137;51.550;7.060;2024-03-02T11:17:24;1.97;;;1.73;;
6207;SDS011;3137;51.550;7.060;2024-03-02T11:19:52;2.20;;;2.10;;
6207;SDS011;3137;51.550;7.060;2024-03-02T11:22:19;1.53;;;1.53;;
6207;SDS011;3137;51.550;7.060;2024-03-02T11:24:49;1.80;;;1.50;;
6207;SDS011;3137;51.550;7.060;2024-03-02T11:32:58;1.40;;;1.40;;
6207;SDS011;3137;51.550;7.060;2024-03-02T11:35:25;1.47;;;1.40;;
6207;SDS011;3137;51.550;7.060;2024-03-02T11:37:52;2.03;;;1.43;;
6207;SDS011;3137;51.550;7.060;2024-03-02T11:40:22;1.57;;;1.50;;
6207;SDS011;3137;51.550;7.060;2024-03-02T11:42:48;2.00;;;1.50;;
6207;SDS011;3137;51.550;7.060;2024-03-02T11:45:33;1.80;;;1.80;;
6207;SDS011;3137;51.550;7.060;2024-03-02T11:48:00;4.00;;;1.60;;
6207;SDS011;3137;51.550;7.060;2024-03-02T11:50:29;1.30;;;1.30;;
6207;SDS011;3137;51.550;7.060;2024-03-02T11:52:57;6.10;;;1.93;;
6207;SDS011;3137;51.550;7.060;2024-03-02T11:55:27;2.70;;;2.60;;
6207;SDS011;3137;51.550;7.060;2024-03-02T11:57:55;1.43;;;1.43;;
6207;SDS011;3137;51.550;7.060;2024-03-02T12:00:22;1.20;;;1.20;;
6207;SDS011;3137;51.550;7.060;2024-03-02T12:03:01;3.13;;;1.50;;
6207;SDS011;3137;51.550;7.060;2024-03-02T12:05:32;1.50;;;1.50;;
6207;SDS011;3137;51.550;7.060;2024-03-02T12:08:00;1.90;;;1.90;;
6207;SDS011;3137;51.550;7.060;2024-03-02T12:10:29;3.60;;;2.40;;
6207;SDS011;3137;51.550;7.060;2024-03-02T12:12:58;1.93;;;1.93;;
6207;SDS011;3137;51.550;7.060;2024-03-02T12:15:26;4.10;;;1.20;;
6207;SDS011;3137;51.550;7.060;2024-03-02T12:17:58;1.97;;;1.60;;
6207;SDS011;3137;51.550;7.060;2024-03-02T12:20:26;2.20;;;2.17;;
6207;SDS011;3137;51.550;7.060;2024-03-02T12:22:56;1.40;;;1.40;;
6207;SDS011;3137;51.550;7.060;2024-03-02T12:25:25;3.20;;;3.10;;
6207;SDS011;3137;51.550;7.060;2024-03-02T12:27:55;2.10;;;2.00;;
6207;SDS011;3137;51.550;7.060;2024-03-02T12:30:23;2.63;;;2.63;;
6207;SDS011;3137;51.550;7.060;2024-03-02T12:32:50;3.03;;;2.83;;
6207;SDS011;3137;51.550;7.060;2024-03-02T12:35:17;3.50;;;1.70;;
6207;SDS011;3137;51.550;7.060;2024-03-02T12:37:45;2.40;;;1.53;;
6207;SDS011;3137;51.550;7.060;2024-03-02T12:40:13;1.40;;;1.40;;
6207;SDS011;3137;51.550;7.060;2024-03-02T12:42:40;2.17;;;2.07;;
6207;SDS011;3137;51.550;7.060;2024-03-02T12:45:08;4.20;;;1.67;;
6207;SDS011;3137;51.550;7.060;2024-03-02T12:47:35;1.60;;;1.50;;
6207;SDS011;3137;51.550;7.060;2024-03-02T12:50:03;1.40;;;1.40;;
6207;SDS011;3137;51.550;7.060;2024-03-02T12:52:30;1.70;;;1.70;;
6207;SDS011;3137;51.550;7.060;2024-03-02T12:55:02;1.73;;;1.73;;
6207;SDS011;3137;51.550;7.060;2024-03-02T12:57:31;2.80;;;2.70;;
6207;SDS011;3137;51.550;7.060;2024-03-02T12:59:59;1.60;;;1.60;;
6207;SDS011;3137;51.550;7.060;2024-03-02T13:02:35;1.67;;;1.67;;
6207;SDS011;3137;51.550;7.060;2024-03-02T13:05:02;1.60;;;1.60;;
6207;SDS011;3137;51.550;7.060;2024-03-02T13:07:29;1.70;;;1.60;;
6207;SDS011;3137;51.550;7.060;2024-03-02T13:09:56;1.70;;;1.60;;
6207;SDS011;3137;51.550;7.060;2024-03-02T13:12:24;2.67;;;1.63;;
6207;SDS011;3137;51.550;7.060;2024-03-02T13:14:54;2.93;;;1.67;;
6207;SDS011;3137;51.550;7.060;2024-03-02T13:17:21;1.83;;;1.83;;
6207;SDS011;3137;51.550;7.060;2024-03-02T13:19:51;1.20;;;1.20;;
6207;SDS011;3137;51.550;7.060;2024-03-02T13:22:19;1.50;;;1.40;;
6207;SDS011;3137;51.550;7.060;2024-03-02T13:24:46;1.47;;;1.47;;
6207;SDS011;3137;51.550;7.060;2024-03-02T13:27:12;1.53;;;1.53;;
6207;SDS011;3137;51.550;7.060;2024-03-02T13:29:39;1.40;;;1.40;;
6207;SDS011;3137;51.550;7.060;2024-03-02T13:32:05;1.53;;;1.53;;
6207;SDS011;3137;51.550;7.060;2024-03-02T13:34:32;1.20;;;1.20;;
6207;SDS011;3137;51.550;7.060;2024-03-02T13:36:58;3.50;;;1.37;;
6207;SDS011;3137;51.550;7.060;2024-03-02T13:39:27;3.33;;;1.30;;
6207;SDS011;3137;51.550;7.060;2024-03-02T13:41:57;1.40;;;1.40;;
6207;SDS011;3137;51.550;7.060;2024-03-02T13:44:30;1.50;;;1.50;;
6207;SDS011;3137;51.550;7.060;2024-03-02T13:46:58;4.73;;;1.43;;
6207;SDS011;3137;51.550;7.060;2024-03-02T13:49:25;1.20;;;1.20;;
6207;SDS011;3137;51.550;7.060;2024-03-02T13:52:02;1.57;;;1.57;;
6207;SDS011;3137;51.550;7.060;2024-03-02T13:54:31;2.07;;;2.07;;
6207;SDS011;3137;51.550;7.060;2024-03-02T13:56:58;1.90;;;1.90;;
6207;SDS011;3137;51.550;7.060;2024-03-02T13:59:24;2.43;;;1.70;;
6207;SDS011;3137;51.550;7.060;2024-03-02T14:01:51;4.43;;;1.63;;
6207;SDS011;3137;51.550;7.060;2024-03-02T14:04:17;10.83;;;1.47;;
6207;SDS011;3137;51.550;7.060;2024-03-02T14:06:44;5.47;;;1.57;;
6207;SDS011;3137;51.550;7.060;2024-03-02T14:09:10;1.40;;;1.40;;
6207;SDS011;3137;51.550;7.060;2024-03-02T14:11:37;1.37;;;1.37;;
6207;SDS011;3137;51.550;7.060;2024-03-02T14:14:03;1.87;;;1.53;;
6207;SDS011;3137;51.550;7.060;2024-03-02T14:16:29;1.87;;;1.77;;
6207;SDS011;3137;51.550;7.060;2024-03-02T14:18:56;1.47;;;1.47;;
6207;SDS011;3137;51.550;7.060;2024-03-02T14:21:23;1.80;;;1.80;;
6207;SDS011;3137;51.550;7.060;2024-03-02T14:23:49;1.63;;;1.63;;
6207;SDS011;3137;51.550;7.060;2024-03-02T14:26:16;1.20;;;1.20;;
6207;SDS011;3137;51.550;7.060;2024-03-02T14:28:42;1.20;;;1.20;;
6207;SDS011;3137;51.550;7.060;2024-03-02T14:31:16;1.20;;;1.20;;
6207;SDS011;3137;51.550;7.060;2024-03-02T14:33:43;1.43;;;1.43;;
6207;SDS011;3137;51.550;7.060;2024-03-02T14:36:10;1.30;;;1.30;;
6207;SDS011;3137;51.550;7.060;2024-03-02T14:38:37;1.50;;;1.50;;
6207;SDS011;3137;51.550;7.060;2024-03-02T14:41:04;1.83;;;1.63;;
6207;SDS011;3137;51.550;7.060;2024-03-02T14:43:30;1.47;;;1.43;;
6207;SDS011;3137;51.550;7.060;2024-03-02T14:45:57;2.00;;;1.90;;
6207;SDS011;3137;51.550;7.060;2024-03-02T14:48:25;1.83;;;1.83;;
6207;SDS011;3137;51.550;7.060;2024-03-02T14:50:52;2.00;;;1.30;;
6207;SDS011;3137;51.550;7.060;2024-03-02T14:53:19;1.53;;;1.53;;
6207;SDS011;3137;51.550;7.060;2024-03-02T14:55:45;1.53;;;1.53;;
6207;SDS011;3137;51.550;7.060;2024-03-02T14:58:12;1.90;;;1.90;;
6207;SDS011;3137;51.550;7.060;2024-03-02T15:00:38;1.40;;;1.40;;
6207;SDS011;3137;51.550;7.060;2024-03-02T15:03:05;1.30;;;1.30;;
6207;SDS011;3137;51.550;7.060;2024-03-02T15:05:35;1.67;;;1.67;;
6207;SDS011;3137;51.550;7.060;2024-03-02T15:08:01;1.90;;;1.90;;
6207;SDS011;3137;51.550;7.060;2024-03-02T15:10:30;6.20;;;1.90;;
6207;SDS011;3137;51.550;7.060;2024-03-02T15:12:57;1.60;;;1.50;;
6207;SDS011;3137;51.550;7.060;2024-03-02T15:15:24;1.30;;;1.20;;
6207;SDS011;3137;51.550;7.060;2024-03-02T15:17:51;1.60;;;1.60;;
6207;SDS011;3137;51.550;7.060;2024-03-02T15:20:18;2.67;;;2.67;;
6207;SDS011;3137;51.550;7.060;2024-03-02T15:22:47;2.87;;;2.17;;
6207;SDS011;3137;51.550;7.060;2024-03-02T15:25:13;3.33;;;1.70;;
6207;SDS011;3137;51.550;7.060;2024-03-02T15:27:42;15.03;;;1.97;;
6207;SDS011;3137;51.550;7.060;2024-03-02T15:30:09;1.70;;;1.70;;